createdAt,value
2018-02-08T00:01:12.006Z,71.05
2018-02-08T00:03:39.702Z,69.72
2018-02-08T00:06:08.073Z,70.20
2018-02-08T00:08:36.541Z,75.65
2018-02-08T00:11:04.250Z,68.62
2018-02-08T00:13:31.962Z,65.62
2018-02-08T00:16:01.063Z,66.20
2018-02-08T00:18:29.494Z,66.12
2018-02-08T00:20:57.066Z,64.03
2018-02-08T00:23:24.658Z,63.58
2018-02-08T00:25:52.243Z,71.97
2018-02-08T00:28:19.806Z,71.93
2018-02-08T00:30:47.438Z,73.70
2018-02-08T00:33:15.027Z,72.68
2018-02-08T00:35:42.610Z,75.60
2018-02-08T00:38:10.225Z,60.25
2018-02-08T00:40:38.585Z,70.90
2018-02-08T00:43:06.147Z,76.70
2018-02-08T00:45:33.701Z,78.62
2018-02-08T00:48:02.062Z,74.30
2018-02-08T00:50:29.622Z,72.75
2018-02-08T00:52:57.213Z,68.82
2018-02-08T00:55:25.609Z,68.75
2018-02-08T00:57:53.253Z,73.12
2018-02-08T01:00:21.578Z,69.72
2018-02-08T01:02:49.133Z,69.80
2018-02-08T01:05:16.738Z,68.55
2018-02-08T01:07:44.294Z,68.43
2018-02-08T01:10:11.886Z,69.93
2018-02-08T01:12:39.479Z,69.00
2018-02-08T01:15:07.033Z,78.47
2018-02-08T01:17:34.863Z,72.03
2018-02-08T01:20:02.463Z,75.47
2018-02-08T01:22:30.091Z,69.53
2018-02-08T01:24:57.880Z,74.75
2018-02-08T01:27:25.467Z,70.18
2018-02-08T01:29:53.048Z,73.57
2018-02-08T01:32:21.386Z,78.97
2018-02-08T01:34:49.058Z,75.25
2018-02-08T01:37:17.394Z,65.80
2018-02-08T01:39:44.973Z,78.07
2018-02-08T01:42:12.691Z,69.62
2018-02-08T01:44:41.018Z,64.28
2018-02-08T01:47:08.650Z,74.10
2018-02-08T01:49:45.165Z,74.20
2018-02-08T01:52:12.758Z,70.45
2018-02-08T01:54:40.313Z,74.72
2018-02-08T01:57:07.873Z,72.18
2018-02-08T01:59:35.498Z,73.72
2018-02-08T02:02:03.062Z,71.50
2018-02-08T02:04:30.647Z,72.68
2018-02-08T02:06:58.970Z,71.82
2018-02-08T02:09:26.576Z,69.25
2018-02-08T02:11:54.946Z,76.82
2018-02-08T02:14:23.406Z,75.72
2018-02-08T02:16:50.993Z,83.95
2018-02-08T02:19:19.326Z,63.45
2018-02-08T02:21:46.913Z,79.95
2018-02-08T02:24:15.257Z,74.07
2018-02-08T02:26:42.874Z,72.05
2018-02-08T02:29:10.474Z,80.45
2018-02-08T02:31:38.061Z,75.03
2018-02-08T02:34:06.387Z,69.15
2018-02-08T02:36:33.961Z,85.28
2018-02-08T02:39:01.806Z,82.00
2018-02-08T02:41:29.386Z,79.28
2018-02-08T02:43:57.199Z,69.65
2018-02-08T02:46:24.765Z,77.62
2018-02-08T02:48:53.110Z,74.30
2018-02-08T02:51:20.672Z,85.75
2018-02-08T02:53:48.338Z,77.05
2018-02-08T02:56:15.893Z,83.45
2018-02-08T02:58:43.632Z,74.80
2018-02-08T03:01:11.203Z,67.68
2018-02-08T03:03:39.006Z,76.18
2018-02-08T03:06:06.562Z,70.78
2018-02-08T03:08:35.017Z,79.07
2018-02-08T03:11:02.731Z,78.75
2018-02-08T03:13:30.406Z,74.85
2018-02-08T03:15:58.008Z,75.50
2018-02-08T03:18:26.489Z,77.50
2018-02-08T03:20:54.846Z,78.72
2018-02-08T03:23:22.505Z,77.68
2018-02-08T03:25:50.065Z,83.68
2018-02-08T03:28:17.658Z,83.55
2018-02-08T03:30:48.458Z,77.72
2018-02-08T03:33:16.047Z,75.72
2018-02-08T03:35:44.366Z,80.18
2018-02-08T03:38:11.955Z,80.75
2018-02-08T03:40:39.534Z,76.87
2018-02-08T03:43:08.094Z,83.95
2018-02-08T03:45:35.690Z,79.57
2018-02-08T03:48:04.035Z,78.12
2018-02-08T03:50:31.626Z,85.55
2018-02-08T03:53:00.047Z,79.80
2018-02-08T03:55:27.654Z,73.70
2018-02-08T03:57:56.014Z,83.20
2018-02-08T04:00:23.606Z,80.25
2018-02-08T04:02:51.167Z,75.55
2018-02-08T04:05:18.758Z,87.60
2018-02-08T04:07:46.314Z,79.57
2018-02-08T04:10:13.925Z,82.07
2018-02-08T04:12:42.246Z,82.57
2018-02-08T04:15:09.819Z,87.05
2018-02-08T04:17:37.412Z,85.57
2018-02-08T04:20:05.755Z,83.68
2018-02-08T04:22:33.361Z,84.00
2018-02-08T04:25:01.678Z,91.10
2018-02-08T04:27:29.266Z,92.12
2018-02-08T04:29:57.074Z,93.75
2018-02-08T04:32:24.640Z,85.57
2018-02-08T04:34:52.235Z,96.82
2018-02-08T04:37:19.794Z,87.05
2018-02-08T04:39:59.142Z,98.65
2018-02-08T04:42:35.483Z,91.37
2018-02-08T04:45:15.038Z,95.95
2018-02-08T04:47:58.185Z,91.93
2018-02-08T04:50:26.554Z,79.32
2018-02-08T04:52:54.107Z,88.62
2018-02-08T04:55:21.694Z,88.15
2018-02-08T04:57:50.019Z,91.43
2018-02-08T05:00:17.607Z,94.57
2018-02-08T05:02:45.257Z,88.20
2018-02-08T05:05:12.830Z,96.90
2018-02-08T05:07:41.187Z,105.22
2018-02-08T05:10:08.746Z,98.75
2018-02-08T05:12:36.438Z,102.72
2018-02-08T05:15:04.861Z,93.37
2018-02-08T05:17:32.602Z,99.30
2018-02-08T05:20:00.181Z,105.82
2018-02-08T05:22:27.778Z,106.63
2018-02-08T05:24:56.199Z,98.60
2018-02-08T05:27:23.822Z,102.07
2018-02-08T05:29:52.201Z,121.18
2018-02-08T05:32:20.539Z,104.38
2018-02-08T05:34:48.102Z,105.20
2018-02-08T05:37:15.730Z,114.00
2018-02-08T05:39:43.298Z,121.53
2018-02-08T05:42:10.886Z,104.68
2018-02-08T05:44:38.482Z,107.78
2018-02-08T05:47:06.099Z,110.78
2018-02-08T05:49:34.614Z,102.25
2018-02-08T05:52:03.089Z,115.53
2018-02-08T05:54:31.418Z,109.70
2018-02-08T05:56:59.010Z,115.47
2018-02-08T05:59:26.738Z,101.68
2018-02-08T06:01:54.306Z,95.12
2018-02-08T06:04:21.899Z,107.95
2018-02-08T06:06:49.641Z,107.35
2018-02-08T06:09:17.242Z,100.90
2018-02-08T06:11:45.702Z,103.82
2018-02-08T06:14:13.290Z,96.68
2018-02-08T06:16:40.858Z,116.72
2018-02-08T06:19:08.450Z,109.12
2018-02-08T06:21:36.027Z,106.00
2018-02-08T06:24:03.638Z,113.03
2018-02-08T06:26:31.325Z,114.95
2018-02-08T06:28:59.062Z,111.53
2018-02-08T06:31:26.624Z,103.43
2018-02-08T06:33:54.266Z,106.78
2018-02-08T06:36:21.931Z,100.03
2018-02-08T06:38:49.518Z,121.95
2018-02-08T06:41:17.130Z,102.55
2018-02-08T06:43:45.473Z,107.82
2018-02-08T06:46:13.098Z,101.90
2018-02-08T06:48:40.838Z,97.37
2018-02-08T06:51:08.438Z,113.32
2018-02-08T06:53:36.039Z,109.82
2018-02-08T06:56:03.614Z,122.57
2018-02-08T06:58:32.006Z,107.57
2018-02-08T07:00:59.610Z,106.68
2018-02-08T07:03:27.174Z,111.30
2018-02-08T07:05:54.774Z,115.93
2018-02-08T07:08:22.434Z,103.47
2018-02-08T07:10:50.026Z,99.55
2018-02-08T07:13:17.582Z,100.07
2018-02-08T07:15:45.310Z,96.95
2018-02-08T07:18:12.914Z,97.05
2018-02-08T07:20:40.548Z,109.10
2018-02-08T07:23:08.167Z,102.00
2018-02-08T07:25:35.761Z,98.07
2018-02-08T07:28:03.323Z,114.80
2018-02-08T07:30:30.891Z,107.03
2018-02-08T07:32:58.490Z,101.78
2018-02-08T07:35:26.056Z,111.30
2018-02-08T07:37:53.646Z,106.78
2018-02-08T07:40:21.202Z,98.90
2018-02-08T07:42:48.839Z,111.20
2018-02-08T07:45:17.206Z,113.05
2018-02-08T07:47:44.819Z,113.75
2018-02-08T07:50:12.404Z,97.12
2018-02-08T07:52:40.059Z,109.10
2018-02-08T07:55:07.659Z,96.60
2018-02-08T07:57:36.135Z,109.68
2018-02-08T08:00:04.597Z,103.05
2018-02-08T08:02:32.210Z,103.57
2018-02-08T08:04:59.814Z,112.35
2018-02-08T08:07:27.432Z,108.00
2018-02-08T08:09:54.986Z,121.57
2018-02-08T08:12:22.594Z,113.78
2018-02-08T08:14:50.170Z,115.85
2018-02-08T08:17:18.608Z,116.55
2018-02-08T08:19:46.258Z,110.68
2018-02-08T08:22:13.862Z,110.18
2018-02-08T08:24:41.414Z,111.35
2018-02-08T08:27:08.986Z,110.47
2018-02-08T08:29:36.577Z,106.03
2018-02-08T08:32:04.113Z,115.28
2018-02-08T08:34:32.588Z,107.03
2018-02-08T08:37:00.913Z,102.35
2018-02-08T08:39:28.633Z,106.32
2018-02-08T08:41:56.971Z,97.28
2018-02-08T08:44:24.610Z,105.63
2018-02-08T08:46:52.198Z,106.50
2018-02-08T08:49:19.770Z,108.20
2018-02-08T08:51:47.368Z,110.22
2018-02-08T08:54:14.923Z,106.53
2018-02-08T08:56:42.524Z,113.15
2018-02-08T08:59:10.084Z,120.78
2018-02-08T09:01:37.674Z,119.93
2018-02-08T09:04:05.997Z,125.45
2018-02-08T09:06:33.594Z,121.15
2018-02-08T09:09:01.186Z,99.80
2018-02-08T09:11:28.750Z,104.75
2018-02-08T09:13:56.339Z,111.93
2018-02-08T09:16:23.893Z,112.32
2018-02-08T09:18:51.494Z,108.70
2018-02-08T09:21:19.830Z,99.65
2018-02-08T09:23:47.464Z,103.15
2018-02-08T09:26:15.026Z,129.40
2018-02-08T09:28:42.726Z,109.68
2018-02-08T09:31:10.283Z,107.43
2018-02-08T09:33:37.841Z,118.47
2018-02-08T09:36:05.454Z,108.55
2018-02-08T09:38:33.022Z,105.25
2018-02-08T09:41:00.613Z,121.05
2018-02-08T09:43:28.194Z,116.78
2018-02-08T09:45:55.798Z,118.05
2018-02-08T09:48:23.375Z,105.72
2018-02-08T09:50:50.957Z,106.35
2018-02-08T09:53:18.550Z,111.47
2018-02-08T09:55:46.882Z,108.10
2018-02-08T09:58:14.465Z,109.72
2018-02-08T10:00:42.030Z,109.28
2018-02-08T10:03:09.626Z,110.07
2018-02-08T10:05:37.195Z,105.22
2018-02-08T10:08:04.758Z,112.03
2018-02-08T10:10:32.353Z,106.53
2018-02-08T10:12:59.962Z,101.57
2018-02-08T10:15:27.628Z,111.68
2018-02-08T10:17:55.190Z,105.07
2018-02-08T10:20:22.801Z,105.60
2018-02-08T10:22:51.207Z,114.40
2018-02-08T10:25:19.534Z,108.90
2018-02-08T10:27:47.167Z,101.82
2018-02-08T10:30:14.893Z,112.25
2018-02-08T10:32:43.314Z,104.55
2018-02-08T10:35:10.911Z,120.60
2018-02-08T10:37:38.515Z,102.20
2018-02-08T10:40:06.147Z,105.50
2018-02-08T10:42:34.762Z,112.37
2018-02-08T10:45:02.337Z,110.07
2018-02-08T10:47:29.930Z,114.15
2018-02-08T10:49:58.287Z,118.37
2018-02-08T10:52:26.673Z,104.15
2018-02-08T10:54:54.247Z,106.68
2018-02-08T10:57:21.847Z,105.18
2018-02-08T10:59:49.425Z,103.57
2018-02-08T11:02:17.006Z,117.57
2018-02-08T11:04:44.622Z,126.53
2018-02-08T11:07:12.182Z,102.32
2018-02-08T11:09:39.789Z,117.53
2018-02-08T11:12:07.350Z,108.40
2018-02-08T11:14:34.977Z,105.25
2018-02-08T11:17:02.543Z,97.90
2018-02-08T11:19:30.184Z,107.95
2018-02-08T11:21:57.774Z,114.28
2018-02-08T11:24:25.511Z,104.43
2018-02-08T11:26:53.090Z,112.25
2018-02-08T11:29:20.737Z,132.27
2018-02-08T11:31:48.342Z,109.05
2018-02-08T11:34:16.829Z,104.43
2018-02-08T11:36:45.353Z,106.70
2018-02-08T11:39:13.022Z,111.30
2018-02-08T11:41:40.618Z,99.50
2018-02-08T11:44:09.014Z,100.55
2018-02-08T11:46:36.602Z,107.22
2018-02-08T11:49:04.210Z,106.12
2018-02-08T11:51:31.782Z,105.93
2018-02-08T11:54:00.167Z,110.93
2018-02-08T11:56:28.519Z,111.70
2018-02-08T11:58:56.114Z,108.20
2018-02-08T12:01:23.741Z,109.72
2018-02-08T12:03:52.079Z,95.70
2018-02-08T12:06:19.694Z,121.03
2018-02-08T12:08:48.038Z,112.35
2018-02-08T12:11:15.622Z,101.22
2018-02-08T12:13:43.977Z,112.25
2018-02-08T12:16:11.566Z,107.72
2018-02-08T12:18:40.079Z,105.82
2018-02-08T12:21:07.716Z,100.12
2018-02-08T12:23:35.274Z,99.75
2018-02-08T12:26:02.834Z,114.07
2018-02-08T12:28:30.448Z,108.95
2018-02-08T12:30:58.024Z,104.85
2018-02-08T12:33:25.614Z,111.12
2018-02-08T12:35:53.190Z,114.90
2018-02-08T12:38:20.798Z,107.40
2018-02-08T12:40:48.386Z,111.07
2018-02-08T12:43:15.971Z,101.55
2018-02-08T12:45:43.588Z,108.47
2018-02-08T12:48:11.921Z,105.72
2018-02-08T12:50:39.565Z,104.45
2018-02-08T12:53:07.285Z,115.57
2018-02-08T12:55:35.778Z,103.80
2018-02-08T12:58:03.355Z,103.95
2018-02-08T13:00:31.018Z,98.80
2018-02-08T13:02:58.598Z,106.05
2018-02-08T13:05:26.163Z,99.07
2018-02-08T13:07:53.753Z,100.43
2018-02-08T13:10:22.094Z,103.93
2018-02-08T13:12:49.683Z,111.15
2018-02-08T13:15:17.255Z,112.72
2018-02-08T13:17:45.694Z,103.82
2018-02-08T13:20:13.254Z,108.40
2018-02-08T13:22:40.902Z,98.40
2018-02-08T13:25:08.492Z,114.57
2018-02-08T13:27:36.042Z,108.22
2018-02-08T13:30:06.694Z,103.20
2018-02-08T13:32:35.098Z,102.82
2018-02-08T13:35:02.866Z,115.50
2018-02-08T13:37:30.447Z,106.03
2018-02-08T13:39:58.023Z,108.90
2018-02-08T13:42:25.608Z,108.37
2018-02-08T13:44:53.212Z,104.87
2018-02-08T13:47:26.389Z,114.43
2018-02-08T13:53:09.011Z,106.60
2018-02-08T13:55:42.259Z,120.78
2018-02-08T13:58:29.594Z,121.35
2018-02-08T14:00:58.751Z,122.00
2018-02-08T14:03:26.359Z,112.50
2018-02-08T14:05:53.902Z,111.12
2018-02-08T14:08:21.495Z,109.20
2018-02-08T14:10:49.838Z,112.15
2018-02-08T14:13:17.447Z,102.20
2018-02-08T14:15:45.090Z,112.28
2018-02-08T14:18:13.589Z,109.20
2018-02-08T14:20:41.166Z,111.50
2018-02-08T14:23:08.834Z,104.10
2018-02-08T14:25:36.451Z,110.00
2018-02-08T14:28:04.774Z,123.07
2018-02-08T14:30:32.465Z,105.15
2018-02-08T14:33:00.039Z,114.12
2018-02-08T14:35:28.406Z,116.72
2018-02-08T14:37:56.742Z,103.30
2018-02-08T14:40:24.426Z,104.87
2018-02-08T14:42:52.114Z,109.40
2018-02-08T14:45:20.447Z,110.72
2018-02-08T14:47:48.057Z,105.18
2018-02-08T14:50:15.622Z,118.78
2018-02-08T14:52:43.258Z,114.93
2018-02-08T14:55:11.705Z,102.70
2018-02-08T14:57:39.282Z,101.65
2018-02-08T15:00:06.906Z,113.53
2018-02-08T15:02:34.485Z,108.97
2018-02-08T15:05:02.098Z,107.70
2018-02-08T15:07:29.674Z,108.63
2018-02-08T15:09:57.294Z,102.03
2018-02-08T15:12:25.699Z,119.10
2018-02-08T15:14:53.378Z,114.15
2018-02-08T15:17:21.172Z,99.28
2018-02-08T15:19:48.769Z,101.60
2018-02-08T15:22:17.098Z,109.47
2018-02-08T15:24:44.690Z,107.28
2018-02-08T15:27:13.059Z,107.82
2018-02-08T15:29:40.848Z,117.65
2018-02-08T15:32:09.262Z,105.55
2018-02-08T15:34:36.923Z,113.68
2018-02-08T15:37:04.665Z,110.78
2018-02-08T15:39:32.251Z,98.25
2018-02-08T15:41:59.822Z,106.87
2018-02-08T15:44:27.601Z,104.90
2018-02-08T15:46:55.326Z,102.10
2018-02-08T15:49:22.899Z,100.75
2018-02-08T15:51:50.557Z,101.12
2018-02-08T15:54:18.172Z,99.07
2018-02-08T15:56:45.758Z,107.78
2018-02-08T15:59:13.475Z,108.68
2018-02-08T16:01:41.812Z,105.57
2018-02-08T16:04:09.439Z,100.53
2018-02-08T16:06:37.050Z,105.68
2018-02-08T16:09:04.624Z,116.95
2018-02-08T16:11:32.989Z,102.65
2018-02-08T16:14:00.599Z,122.18
2018-02-08T16:16:28.212Z,119.82
2018-02-08T16:18:55.810Z,104.63
2018-02-08T16:21:23.382Z,109.85
2018-02-08T16:23:51.002Z,109.37
2018-02-08T16:26:19.334Z,106.70
2018-02-08T16:28:46.934Z,104.43
2018-02-08T16:31:14.498Z,107.60
2018-02-08T16:33:42.977Z,112.88
2018-02-08T16:36:11.321Z,106.57
2018-02-08T16:38:38.963Z,105.40
2018-02-08T16:41:06.729Z,117.82
2018-02-08T16:43:34.307Z,129.25
2018-02-08T16:46:01.906Z,121.35
2018-02-08T16:48:30.283Z,118.57
2018-02-08T16:50:58.666Z,123.93
2018-02-08T16:53:26.234Z,123.90
2018-02-08T16:55:53.816Z,147.15
2018-02-08T16:58:21.410Z,126.70
2018-02-08T17:00:48.996Z,121.13
2018-02-08T17:03:17.400Z,116.53
2018-02-08T17:05:45.842Z,115.43
2018-02-08T17:08:13.443Z,115.40
2018-02-08T17:10:41.033Z,118.75
2018-02-08T17:13:08.593Z,116.40
2018-02-08T17:15:36.186Z,114.65
2018-02-08T17:18:04.670Z,120.00
2018-02-08T17:20:33.062Z,112.50
2018-02-08T17:23:00.660Z,124.93
2018-02-08T17:25:28.242Z,119.90
2018-02-08T17:27:55.807Z,123.53
2018-02-08T17:30:23.466Z,109.10
2018-02-08T17:32:51.798Z,116.85
2018-02-08T17:35:19.422Z,122.70
2018-02-08T17:37:47.761Z,116.00
2018-02-08T17:40:15.334Z,110.12
2018-02-08T17:42:42.930Z,114.05
2018-02-08T17:45:10.494Z,111.68
2018-02-08T17:47:38.110Z,115.90
2018-02-08T17:50:05.694Z,110.15
2018-02-08T17:52:34.150Z,115.72
2018-02-08T17:55:02.510Z,114.40
2018-02-08T17:57:30.301Z,118.22
2018-02-08T17:59:58.674Z,126.95
2018-02-08T18:02:27.027Z,126.35
2018-02-08T18:04:54.631Z,119.60
2018-02-08T18:07:22.216Z,106.85
2018-02-08T18:09:50.031Z,109.18
2018-02-08T18:12:17.610Z,114.22
2018-02-08T18:14:46.195Z,110.65
2018-02-08T18:17:14.542Z,106.82
2018-02-08T18:19:42.155Z,105.50
2018-02-08T18:22:09.740Z,113.85
2018-02-08T18:24:37.362Z,114.12
2018-02-08T18:27:04.965Z,102.35
2018-02-08T18:29:32.546Z,108.40
2018-02-08T18:32:00.214Z,103.10
2018-02-08T18:34:28.693Z,115.40
2018-02-08T18:36:57.073Z,106.10
2018-02-08T18:39:25.410Z,117.72
2018-02-08T18:41:53.078Z,110.85
2018-02-08T18:44:20.671Z,105.45
2018-02-08T18:46:49.129Z,116.90
2018-02-08T18:49:16.710Z,110.90
2018-02-08T18:51:45.099Z,114.93
2018-02-08T18:54:12.738Z,107.05
2018-02-08T18:56:41.098Z,105.35
2018-02-08T18:59:08.703Z,109.22
2018-02-08T19:01:36.287Z,100.68
2018-02-08T19:04:03.881Z,108.20
2018-02-08T19:06:31.453Z,108.82
2018-02-08T19:09:00.141Z,101.15
2018-02-08T19:11:28.518Z,106.05
2018-02-08T19:13:56.866Z,110.32
2018-02-08T19:16:24.452Z,113.35
2018-02-08T19:18:52.798Z,107.18
2018-02-08T19:21:20.435Z,111.32
2018-02-08T19:23:48.002Z,97.25
2018-02-08T19:26:15.614Z,109.25
2018-02-08T19:28:43.958Z,102.40
2018-02-08T19:31:11.551Z,99.07
2018-02-08T19:33:39.890Z,116.93
2018-02-08T19:36:07.514Z,103.60
2018-02-08T19:38:35.103Z,100.85
2018-02-08T19:41:02.672Z,95.35
2018-02-08T19:43:30.292Z,96.15
2018-02-08T19:45:57.863Z,98.57
2018-02-08T19:48:25.472Z,126.38
2018-02-08T19:50:54.071Z,95.50
2018-02-08T19:53:21.682Z,99.47
2018-02-08T19:55:49.307Z,106.95
2018-02-08T19:58:16.916Z,101.25
2018-02-08T20:00:44.495Z,93.28
2018-02-08T20:03:12.875Z,104.35
2018-02-08T20:05:41.211Z,99.03
2018-02-08T20:08:08.823Z,107.43
2018-02-08T20:10:36.483Z,95.75
2018-02-08T20:13:04.135Z,101.12
2018-02-08T20:15:32.522Z,98.18
2018-02-08T20:18:00.139Z,104.95
2018-02-08T20:20:27.751Z,97.93
2018-02-08T20:22:55.316Z,108.70
2018-02-08T20:28:19.473Z,93.80
2018-02-08T20:30:52.665Z,102.53
2018-02-08T20:33:20.246Z,91.87
2018-02-08T20:35:47.875Z,95.35
2018-02-08T20:38:15.479Z,96.25
2018-02-08T20:40:43.144Z,94.15
2018-02-08T20:43:16.483Z,113.40
2018-02-08T20:45:45.571Z,87.88
2018-02-08T20:48:13.322Z,97.95
2018-02-08T20:50:40.910Z,108.85
2018-02-08T20:53:09.262Z,98.90
2018-02-08T20:55:36.951Z,93.28
2018-02-08T20:58:04.547Z,97.72
2018-02-08T21:00:32.175Z,102.03
2018-02-08T21:03:00.667Z,100.75
2018-02-08T21:05:29.195Z,101.40
2018-02-08T21:07:56.813Z,100.97
2018-02-08T21:10:24.426Z,91.35
2018-02-08T21:12:52.079Z,98.12
2018-02-08T21:15:19.662Z,98.32
2018-02-08T21:17:48.022Z,97.57
2018-02-08T21:20:15.603Z,95.75
2018-02-08T21:22:43.359Z,97.28
2018-02-08T21:25:10.958Z,86.20
2018-02-08T21:27:38.556Z,86.68
2018-02-08T21:30:06.207Z,84.15
2018-02-08T21:32:33.813Z,97.10
2018-02-08T21:35:02.150Z,86.90
2018-02-08T21:37:29.775Z,87.65
2018-02-08T21:39:57.430Z,105.57
2018-02-08T21:42:25.015Z,98.15
2018-02-08T21:44:52.625Z,93.87
2018-02-08T21:47:20.954Z,84.05
2018-02-08T21:49:48.706Z,92.68
2018-02-08T21:52:16.297Z,91.63
2018-02-08T21:54:43.871Z,100.70
2018-02-08T21:57:11.471Z,89.95
2018-02-08T21:59:39.026Z,82.97
2018-02-08T22:02:06.847Z,100.85
2018-02-08T22:04:34.456Z,95.20
2018-02-08T22:07:02.071Z,93.53
2018-02-08T22:09:30.428Z,89.45
2018-02-08T22:11:58.838Z,97.45
2018-02-08T22:14:27.289Z,94.25
2018-02-08T22:16:54.878Z,95.47
2018-02-08T22:19:22.451Z,99.37
2018-02-08T22:21:50.777Z,88.43
2018-02-08T22:24:18.432Z,84.82
2018-02-08T22:26:46.138Z,98.53
2018-02-08T22:29:14.658Z,94.18
2018-02-08T22:31:42.361Z,92.25
2018-02-08T22:34:09.955Z,99.03
2018-02-08T22:36:37.608Z,96.10
2018-02-08T22:39:06.454Z,90.43
2018-02-08T22:41:34.065Z,114.25
2018-02-08T22:44:01.661Z,84.80
2018-02-08T22:46:29.440Z,85.60
2018-02-08T22:48:57.006Z,82.28
2018-02-08T22:51:24.610Z,89.72
2018-02-08T22:53:52.179Z,88.65
2018-02-08T22:56:19.746Z,82.07
2018-02-08T22:58:47.494Z,99.10
2018-02-08T23:01:15.176Z,89.53
2018-02-08T23:03:42.778Z,82.62
2018-02-08T23:06:10.342Z,92.22
2018-02-08T23:08:38.698Z,84.03
2018-02-08T23:11:06.310Z,75.60
2018-02-08T23:13:34.120Z,89.22
2018-02-08T23:16:01.683Z,99.03
2018-02-08T23:18:29.299Z,80.82
2018-02-08T23:20:56.854Z,76.85
2018-02-08T23:23:24.414Z,82.88
2018-02-08T23:25:52.026Z,83.72
2018-02-08T23:28:19.582Z,87.57
2018-02-08T23:30:48.142Z,90.35
2018-02-08T23:33:15.709Z,90.93
2018-02-08T23:35:43.297Z,97.00
2018-02-08T23:38:11.706Z,86.20
2018-02-08T23:40:39.490Z,97.00
2018-02-08T23:43:07.112Z,80.82
2018-02-08T23:45:35.637Z,93.55
2018-02-08T23:48:03.236Z,95.50
2018-02-08T23:50:31.569Z,103.38
2018-02-08T23:52:59.158Z,83.93
2018-02-08T23:55:26.827Z,90.57
2018-02-08T23:57:54.458Z,98.47
